sensor_id;sensor_type;location;lat;lon;timestamp;temperature;humidity
8715;DHT22;4394;51.208;8.904;2024-02-15T00:00:52;11.10;99.90
8715;DHT22;4394;51.208;8.904;2024-02-15T00:03:40;11.10;99.90
8715;DHT22;4394;51.208;8.904;2024-02-15T00:06:29;11.10;99.90
8715;DHT22;4394;51.208;8.904;2024-02-15T00:09:18;11.20;99.90
8715;DHT22;4394;51.208;8.904;2024-02-15T00:12:06;11.10;99.90
8715;DHT22;4394;51.208;8.904;2024-02-15T00:14:55;11.10;99.90
8715;DHT22;4394;51.208;8.904;2024-02-15T00:17:45;11.20;99.90
8715;DHT22;4394;51.208;8.904;2024-02-15T00:20:35;11.10;99.90
8715;DHT22;4394;51.208;8.904;2024-02-15T00:23:24;11.20;99.90
8715;DHT22;4394;51.208;8.904;2024-02-15T00:26:12;11.20;99.90
8715;DHT22;4394;51.208;8.904;2024-02-15T00:29:00;11.20;99.90
8715;DHT22;4394;51.208;8.904;2024-02-15T00:31:48;11.20;99.90
8715;DHT22;4394;51.208;8.904;2024-02-15T00:34:37;11.20;99.90
8715;DHT22;4394;51.208;8.904;2024-02-15T00:37:25;11.20;99.90
8715;DHT22;4394;51.208;8.904;2024-02-15T00:40:15;11.20;99.90
8715;DHT22;4394;51.208;8.904;2024-02-15T00:43:04;11.20;99.90
8715;DHT22;4394;51.208;8.904;2024-02-15T00:45:53;11.20;99.90
8715;DHT22;4394;51.208;8.904;2024-02-15T00:48:41;11.20;99.90
8715;DHT22;4394;51.208;8.904;2024-02-15T00:51:29;11.20;99.90
8715;DHT22;4394;51.208;8.904;2024-02-15T00:54:17;11.20;99.90
8715;DHT22;4394;51.208;8.904;2024-02-15T00:57:07;11.20;99.90
8715;DHT22;4394;51.208;8.904;2024-02-15T00:59:55;11.20;99.90
8715;DHT22;4394;51.208;8.904;2024-02-15T01:02:43;11.20;99.90
8715;DHT22;4394;51.208;8.904;2024-02-15T01:05:32;11.20;99.90
8715;DHT22;4394;51.208;8.904;2024-02-15T01:08:21;11.20;99.90
8715;DHT22;4394;51.208;8.904;2024-02-15T01:11:09;11.20;99.90
8715;DHT22;4394;51.208;8.904;2024-02-15T01:13:58;11.20;99.90
8715;DHT22;4394;51.208;8.904;2024-02-15T01:16:47;11.20;99.90
8715;DHT22;4394;51.208;8.904;2024-02-15T01:19:35;11.20;99.90
8715;DHT22;4394;51.208;8.904;2024-02-15T01:22:23;11.40;99.90
8715;DHT22;4394;51.208;8.904;2024-02-15T01:25:13;11.20;99.90
8715;DHT22;4394;51.208;8.904;2024-02-15T01:28:03;11.20;99.90
8715;DHT22;4394;51.208;8.904;2024-02-15T01:30:52;11.20;99.90
8715;DHT22;4394;51.208;8.904;2024-02-15T01:33:41;11.20;99.90
8715;DHT22;4394;51.208;8.904;2024-02-15T01:36:29;11.20;99.90
8715;DHT22;4394;51.208;8.904;2024-02-15T01:39:18;11.20;99.90
8715;DHT22;4394;51.208;8.904;2024-02-15T01:42:06;11.30;99.90
8715;DHT22;4394;51.208;8.904;2024-02-15T01:44:54;11.30;99.90
8715;DHT22;4394;51.208;8.904;2024-02-15T01:47:44;11.20;99.90
8715;DHT22;4394;51.208;8.904;2024-02-15T01:50:33;11.20;99.90
8715;DHT22;4394;51.208;8.904;2024-02-15T01:53:22;11.20;99.90
8715;DHT22;4394;51.208;8.904;2024-02-15T01:56:13;11.30;99.90
8715;DHT22;4394;51.208;8.904;2024-02-15T01:59:01;11.30;99.90
8715;DHT22;4394;51.208;8.904;2024-02-15T02:01:51;11.30;99.90
8715;DHT22;4394;51.208;8.904;2024-02-15T02:04:41;11.30;99.90
8715;DHT22;4394;51.208;8.904;2024-02-15T02:07:30;11.30;99.90
8715;DHT22;4394;51.208;8.904;2024-02-15T02:10:18;11.30;99.90
8715;DHT22;4394;51.208;8.904;2024-02-15T02:13:06;11.30;99.90
8715;DHT22;4394;51.208;8.904;2024-02-15T02:15:54;11.30;99.90
8715;DHT22;4394;51.208;8.904;2024-02-15T02:18:43;11.20;99.90
8715;DHT22;4394;51.208;8.904;2024-02-15T02:21:33;11.20;99.90
8715;DHT22;4394;51.208;8.904;2024-02-15T02:24:22;11.20;99.90
8715;DHT22;4394;51.208;8.904;2024-02-15T02:27:12;11.20;99.90
8715;DHT22;4394;51.208;8.904;2024-02-15T02:30:03;11.20;99.90
8715;DHT22;4394;51.208;8.904;2024-02-15T02:32:54;11.20;99.90
8715;DHT22;4394;51.208;8.904;2024-02-15T02:35:42;11.30;99.90
8715;DHT22;4394;51.208;8.904;2024-02-15T02:38:31;11.30;99.90
8715;DHT22;4394;51.208;8.904;2024-02-15T02:41:19;11.30;99.90
8715;DHT22;4394;51.208;8.904;2024-02-15T02:44:08;11.30;99.90
8715;DHT22;4394;51.208;8.904;2024-02-15T02:46:57;11.30;99.90
8715;DHT22;4394;51.208;8.904;2024-02-15T02:49:45;11.30;99.90
8715;DHT22;4394;51.208;8.904;2024-02-15T02:52:34;11.20;99.90
8715;DHT22;4394;51.208;8.904;2024-02-15T02:55:25;11.30;99.90
8715;DHT22;4394;51.208;8.904;2024-02-15T02:58:15;11.30;99.90
8715;DHT22;4394;51.208;8.904;2024-02-15T03:01:05;11.30;99.90
8715;DHT22;4394;51.208;8.904;2024-02-15T03:03:53;11.30;99.90
8715;DHT22;4394;51.208;8.904;2024-02-15T03:06:42;11.30;99.90
8715;DHT22;4394;51.208;8.904;2024-02-15T03:09:30;11.30;99.90
8715;DHT22;4394;51.208;8.904;2024-02-15T03:12:18;11.30;99.90
8715;DHT22;4394;51.208;8.904;2024-02-15T03:15:07;11.30;99.90
8715;DHT22;4394;51.208;8.904;2024-02-15T03:18:00;11.30;99.90
8715;DHT22;4394;51.208;8.904;2024-02-15T03:20:54;11.30;99.90
8715;DHT22;4394;51.208;8.904;2024-02-15T03:23:42;11.30;99.90
8715;DHT22;4394;51.208;8.904;2024-02-15T03:26:31;11.30;99.90
8715;DHT22;4394;51.208;8.904;2024-02-15T03:29:25;11.30;99.90
8715;DHT22;4394;51.208;8.904;2024-02-15T03:32:13;11.30;99.90
8715;DHT22;4394;51.208;8.904;2024-02-15T03:35:03;11.30;99.90
8715;DHT22;4394;51.208;8.904;2024-02-15T03:37:52;11.30;99.90
8715;DHT22;4394;51.208;8.904;2024-02-15T03:40:40;11.30;99.90
8715;DHT22;4394;51.208;8.904;2024-02-15T03:43:28;11.30;99.90
8715;DHT22;4394;51.208;8.904;2024-02-15T03:46:16;11.30;99.90
8715;DHT22;4394;51.208;8.904;2024-02-15T03:49:04;11.30;99.90
8715;DHT22;4394;51.208;8.904;2024-02-15T03:51:54;11.30;99.90
8715;DHT22;4394;51.208;8.904;2024-02-15T03:54:42;11.30;99.90
8715;DHT22;4394;51.208;8.904;2024-02-15T03:57:31;11.30;99.90
8715;DHT22;4394;51.208;8.904;2024-02-15T04:00:20;11.30;99.90
8715;DHT22;4394;51.208;8.904;2024-02-15T04:03:09;11.30;99.90
8715;DHT22;4394;51.208;8.904;2024-02-15T04:05:57;11.30;99.90
8715;DHT22;4394;51.208;8.904;2024-02-15T04:08:48;11.30;99.90
8715;DHT22;4394;51.208;8.904;2024-02-15T04:11:36;11.30;99.90
8715;DHT22;4394;51.208;8.904;2024-02-15T04:14:25;11.30;99.90
8715;DHT22;4394;51.208;8.904;2024-02-15T04:17:14;11.20;99.90
8715;DHT22;4394;51.208;8.904;2024-02-15T04:20:06;11.30;99.90
8715;DHT22;4394;51.208;8.904;2024-02-15T04:22:55;11.30;99.90
8715;DHT22;4394;51.208;8.904;2024-02-15T04:25:48;11.20;99.90
8715;DHT22;4394;51.208;8.904;2024-02-15T04:28:38;11.30;99.90
8715;DHT22;4394;51.208;8.904;2024-02-15T04:31:26;11.20;99.90
8715;DHT22;4394;51.208;8.904;2024-02-15T04:34:15;11.30;99.90
8715;DHT22;4394;51.208;8.904;2024-02-15T04:37:03;11.30;99.90
8715;DHT22;4394;51.208;8.904;2024-02-15T04:39:54;11.30;99.90
8715;DHT22;4394;51.208;8.904;2024-02-15T04:42:43;11.30;99.90
8715;DHT22;4394;51.208;8.904;2024-02-15T04:45:34;11.30;99.90
8715;DHT22;4394;51.208;8.904;2024-02-15T04:48:22;11.30;99.90
8715;DHT22;4394;51.208;8.904;2024-02-15T04:51:11;11.40;99.90
8715;DHT22;4394;51.208;8.904;2024-02-15T04:53:59;11.40;99.90
8715;DHT22;4394;51.208;8.904;2024-02-15T04:56:48;11.40;99.90
8715;DHT22;4394;51.208;8.904;2024-02-15T04:59:41;11.40;99.90
8715;DHT22;4394;51.208;8.904;2024-02-15T05:02:34;11.40;99.90
8715;DHT22;4394;51.208;8.904;2024-02-15T05:05:27;11.40;99.90
8715;DHT22;4394;51.208;8.904;2024-02-15T05:08:16;11.40;99.90
8715;DHT22;4394;51.208;8.904;2024-02-15T05:11:04;11.40;99.90
8715;DHT22;4394;51.208;8.904;2024-02-15T05:13:53;11.40;99.90
8715;DHT22;4394;51.208;8.904;2024-02-15T05:16:42;11.40;99.90
8715;DHT22;4394;51.208;8.904;2024-02-15T05:19:30;11.40;99.90
8715;DHT22;4394;51.208;8.904;2024-02-15T05:22:19;11.40;99.90
8715;DHT22;4394;51.208;8.904;2024-02-15T05:25:09;11.40;99.90
8715;DHT22;4394;51.208;8.904;2024-02-15T05:27:59;11.40;99.90
8715;DHT22;4394;51.208;8.904;2024-02-15T05:30:47;11.40;99.90
8715;DHT22;4394;51.208;8.904;2024-02-15T05:33:36;11.40;99.90
8715;DHT22;4394;51.208;8.904;2024-02-15T05:36:25;11.40;99.90
8715;DHT22;4394;51.208;8.904;2024-02-15T05:39:14;11.40;99.90
8715;DHT22;4394;51.208;8.904;2024-02-15T05:42:05;11.40;99.90
8715;DHT22;4394;51.208;8.904;2024-02-15T05:44:54;11.40;99.90
8715;DHT22;4394;51.208;8.904;2024-02-15T05:47:42;11.40;99.90
8715;DHT22;4394;51.208;8.904;2024-02-15T05:50:32;11.40;99.90
8715;DHT22;4394;51.208;8.904;2024-02-15T05:53:20;11.40;99.90
8715;DHT22;4394;51.208;8.904;2024-02-15T05:56:09;11.40;99.90
8715;DHT22;4394;51.208;8.904;2024-02-15T05:58:58;11.40;99.90
8715;DHT22;4394;51.208;8.904;2024-02-15T06:01:49;11.40;99.90
8715;DHT22;4394;51.208;8.904;2024-02-15T06:04:37;11.30;99.90
8715;DHT22;4394;51.208;8.904;2024-02-15T06:07:26;11.40;99.90
8715;DHT22;4394;51.208;8.904;2024-02-15T06:10:15;11.40;99.90
8715;DHT22;4394;51.208;8.904;2024-02-15T06:13:04;11.50;99.90
8715;DHT22;4394;51.208;8.904;2024-02-15T06:15:52;11.40;99.90
8715;DHT22;4394;51.208;8.904;2024-02-15T06:18:41;11.40;99.90
8715;DHT22;4394;51.208;8.904;2024-02-15T06:21:30;11.40;99.90
8715;DHT22;4394;51.208;8.904;2024-02-15T06:24:19;11.40;99.90
8715;DHT22;4394;51.208;8.904;2024-02-15T06:27:07;11.40;99.90
8715;DHT22;4394;51.208;8.904;2024-02-15T06:29:56;11.40;99.90
8715;DHT22;4394;51.208;8.904;2024-02-15T06:33:02;11.40;99.90
8715;DHT22;4394;51.208;8.904;2024-02-15T06:36:08;11.40;99.90
8715;DHT22;4394;51.208;8.904;2024-02-15T06:39:15;11.40;99.90
8715;DHT22;4394;51.208;8.904;2024-02-15T06:42:22;11.40;99.90
8715;DHT22;4394;51.208;8.904;2024-02-15T06:45:10;11.40;99.90
8715;DHT22;4394;51.208;8.904;2024-02-15T06:48:00;11.50;99.90
8715;DHT22;4394;51.208;8.904;2024-02-15T06:50:48;11.40;99.90
8715;DHT22;4394;51.208;8.904;2024-02-15T06:53:36;11.40;99.90
8715;DHT22;4394;51.208;8.904;2024-02-15T06:56:24;11.40;99.90
8715;DHT22;4394;51.208;8.904;2024-02-15T06:59:14;11.40;99.90
8715;DHT22;4394;51.208;8.904;2024-02-15T07:02:03;11.40;99.90
8715;DHT22;4394;51.208;8.904;2024-02-15T07:04:52;11.50;99.90
8715;DHT22;4394;51.208;8.904;2024-02-15T07:07:40;11.50;99.90
8715;DHT22;4394;51.208;8.904;2024-02-15T07:10:29;11.50;99.90
8715;DHT22;4394;51.208;8.904;2024-02-15T07:13:18;11.50;99.90
8715;DHT22;4394;51.208;8.904;2024-02-15T07:16:08;11.50;99.90
8715;DHT22;4394;51.208;8.904;2024-02-15T07:18:56;11.60;99.90
8715;DHT22;4394;51.208;8.904;2024-02-15T07:21:44;11.50;99.90
8715;DHT22;4394;51.208;8.904;2024-02-15T07:24:33;11.60;99.90
8715;DHT22;4394;51.208;8.904;2024-02-15T07:27:24;11.50;99.90
8715;DHT22;4394;51.208;8.904;2024-02-15T07:30:14;11.50;99.90
8715;DHT22;4394;51.208;8.904;2024-02-15T07:33:04;11.50;99.90
8715;DHT22;4394;51.208;8.904;2024-02-15T07:35:53;11.50;99.90
8715;DHT22;4394;51.208;8.904;2024-02-15T07:38:43;11.50;99.90
8715;DHT22;4394;51.208;8.904;2024-02-15T07:41:32;11.60;99.90
8715;DHT22;4394;51.208;8.904;2024-02-15T07:44:21;11.60;99.90
8715;DHT22;4394;51.208;8.904;2024-02-15T07:47:09;11.60;99.90
8715;DHT22;4394;51.208;8.904;2024-02-15T07:49:59;11.50;99.90
8715;DHT22;4394;51.208;8.904;2024-02-15T07:52:47;11.50;99.90
8715;DHT22;4394;51.208;8.904;2024-02-15T07:55:36;11.60;99.90
8715;DHT22;4394;51.208;8.904;2024-02-15T07:58:24;11.50;99.90
8715;DHT22;4394;51.208;8.904;2024-02-15T08:01:12;11.60;99.90
8715;DHT22;4394;51.208;8.904;2024-02-15T08:04:02;11.50;99.90
8715;DHT22;4394;51.208;8.904;2024-02-15T08:06:51;11.50;99.90
8715;DHT22;4394;51.208;8.904;2024-02-15T08:09:41;11.60;99.90
8715;DHT22;4394;51.208;8.904;2024-02-15T08:12:31;11.60;99.90
8715;DHT22;4394;51.208;8.904;2024-02-15T08:15:19;11.60;99.90
8715;DHT22;4394;51.208;8.904;2024-02-15T08:18:07;11.60;99.90
8715;DHT22;4394;51.208;8.904;2024-02-15T08:20:57;11.60;99.90
8715;DHT22;4394;51.208;8.904;2024-02-15T08:23:47;11.60;99.90
8715;DHT22;4394;51.208;8.904;2024-02-15T08:26:36;11.60;99.90
8715;DHT22;4394;51.208;8.904;2024-02-15T08:29:25;11.70;99.90
8715;DHT22;4394;51.208;8.904;2024-02-15T08:32:13;11.70;99.90
8715;DHT22;4394;51.208;8.904;2024-02-15T08:35:02;11.70;99.90
8715;DHT22;4394;51.208;8.904;2024-02-15T08:37:53;11.60;99.90
8715;DHT22;4394;51.208;8.904;2024-02-15T08:40:42;11.70;99.90
8715;DHT22;4394;51.208;8.904;2024-02-15T08:43:32;11.70;99.90
8715;DHT22;4394;51.208;8.904;2024-02-15T08:46:20;11.70;99.90
8715;DHT22;4394;51.208;8.904;2024-02-15T08:49:09;11.70;99.90
8715;DHT22;4394;51.208;8.904;2024-02-15T08:52:00;11.80;99.90
8715;DHT22;4394;51.208;8.904;2024-02-15T08:54:50;11.80;99.90
8715;DHT22;4394;51.208;8.904;2024-02-15T08:57:40;11.70;99.90
8715;DHT22;4394;51.208;8.904;2024-02-15T09:00:31;11.80;99.90
8715;DHT22;4394;51.208;8.904;2024-02-15T09:03:19;11.80;99.90
8715;DHT22;4394;51.208;8.904;2024-02-15T09:06:07;11.80;99.90
8715;DHT22;4394;51.208;8.904;2024-02-15T09:08:55;11.90;99.90
8715;DHT22;4394;51.208;8.904;2024-02-15T09:11:44;11.90;99.90
8715;DHT22;4394;51.208;8.904;2024-02-15T09:14:33;11.90;99.90
8715;DHT22;4394;51.208;8.904;2024-02-15T09:17:23;11.90;99.90
8715;DHT22;4394;51.208;8.904;2024-02-15T09:20:13;11.90;99.90
8715;DHT22;4394;51.208;8.904;2024-02-15T09:23:06;11.90;99.90
8715;DHT22;4394;51.208;8.904;2024-02-15T09:25:56;11.90;99.90
8715;DHT22;4394;51.208;8.904;2024-02-15T09:28:46;11.90;99.90
8715;DHT22;4394;51.208;8.904;2024-02-15T09:31:35;11.90;99.90
8715;DHT22;4394;51.208;8.904;2024-02-15T09:34:23;11.90;99.90
8715;DHT22;4394;51.208;8.904;2024-02-15T09:37:11;11.90;99.90
8715;DHT22;4394;51.208;8.904;2024-02-15T09:40:01;11.90;99.90
8715;DHT22;4394;51.208;8.904;2024-02-15T09:42:53;11.90;99.90
8715;DHT22;4394;51.208;8.904;2024-02-15T09:45:41;12.00;99.90
8715;DHT22;4394;51.208;8.904;2024-02-15T09:48:32;12.00;99.90
8715;DHT22;4394;51.208;8.904;2024-02-15T09:51:22;12.00;99.90
8715;DHT22;4394;51.208;8.904;2024-02-15T09:54:11;12.00;99.90
8715;DHT22;4394;51.208;8.904;2024-02-15T09:57:01;12.00;99.90
8715;DHT22;4394;51.208;8.904;2024-02-15T09:59:50;12.00;99.90
8715;DHT22;4394;51.208;8.904;2024-02-15T10:02:40;12.00;99.90
8715;DHT22;4394;51.208;8.904;2024-02-15T10:05:30;12.10;99.90
8715;DHT22;4394;51.208;8.904;2024-02-15T10:08:18;12.10;99.90
8715;DHT22;4394;51.208;8.904;2024-02-15T10:11:08;12.10;99.90
8715;DHT22;4394;51.208;8.904;2024-02-15T10:14:10;12.10;99.90
8715;DHT22;4394;51.208;8.904;2024-02-15T10:17:05;12.20;99.90
8715;DHT22;4394;51.208;8.904;2024-02-15T10:20:03;12.10;99.90
8715;DHT22;4394;51.208;8.904;2024-02-15T10:23:09;12.20;99.90
8715;DHT22;4394;51.208;8.904;2024-02-15T10:25:57;12.20;99.90
8715;DHT22;4394;51.208;8.904;2024-02-15T10:28:45;12.30;99.90
8715;DHT22;4394;51.208;8.904;2024-02-15T10:31:34;12.30;99.90
8715;DHT22;4394;51.208;8.904;2024-02-15T10:34:22;12.30;99.90
8715;DHT22;4394;51.208;8.904;2024-02-15T10:37:13;12.40;99.90
8715;DHT22;4394;51.208;8.904;2024-02-15T10:40:08;12.40;99.90
8715;DHT22;4394;51.208;8.904;2024-02-15T10:43:03;12.40;99.90
8715;DHT22;4394;51.208;8.904;2024-02-15T10:45:51;12.30;99.90
8715;DHT22;4394;51.208;8.904;2024-02-15T10:48:39;12.30;99.90
8715;DHT22;4394;51.208;8.904;2024-02-15T10:51:30;12.30;99.90
8715;DHT22;4394;51.208;8.904;2024-02-15T10:54:31;12.30;99.90
8715;DHT22;4394;51.208;8.904;2024-02-15T10:57:26;12.40;99.90
8715;DHT22;4394;51.208;8.904;2024-02-15T11:00:16;12.40;99.90
8715;DHT22;4394;51.208;8.904;2024-02-15T11:03:08;12.40;99.90
8715;DHT22;4394;51.208;8.904;2024-02-15T11:06:00;12.40;99.90
8715;DHT22;4394;51.208;8.904;2024-02-15T11:08:50;12.50;99.90
8715;DHT22;4394;51.208;8.904;2024-02-15T11:11:39;12.50;99.90
8715;DHT22;4394;51.208;8.904;2024-02-15T11:14:30;12.60;99.90
8715;DHT22;4394;51.208;8.904;2024-02-15T11:17:45;12.60;99.90
8715;DHT22;4394;51.208;8.904;2024-02-15T11:20:51;12.70;99.90
8715;DHT22;4394;51.208;8.904;2024-02-15T11:23:44;12.70;99.90
8715;DHT22;4394;51.208;8.904;2024-02-15T11:26:46;12.70;99.90
8715;DHT22;4394;51.208;8.904;2024-02-15T11:29:51;12.70;99.90
8715;DHT22;4394;51.208;8.904;2024-02-15T11:32:42;12.70;99.90
8715;DHT22;4394;51.208;8.904;2024-02-15T11:36:03;12.70;99.90
8715;DHT22;4394;51.208;8.904;2024-02-15T11:38:52;12.70;99.90
8715;DHT22;4394;51.208;8.904;2024-02-15T11:41:40;12.70;99.90
8715;DHT22;4394;51.208;8.904;2024-02-15T11:44:28;12.80;99.90
8715;DHT22;4394;51.208;8.904;2024-02-15T11:47:19;12.70;99.90
8715;DHT22;4394;51.208;8.904;2024-02-15T11:50:08;12.70;99.90
8715;DHT22;4394;51.208;8.904;2024-02-15T11:53:02;12.80;99.90
8715;DHT22;4394;51.208;8.904;2024-02-15T11:56:00;12.70;99.90
8715;DHT22;4394;51.208;8.904;2024-02-15T11:59:01;12.90;99.90
8715;DHT22;4394;51.208;8.904;2024-02-15T12:01:52;12.90;99.90
8715;DHT22;4394;51.208;8.904;2024-02-15T12:04:59;12.90;99.90
8715;DHT22;4394;51.208;8.904;2024-02-15T12:08:19;12.90;99.90
8715;DHT22;4394;51.208;8.904;2024-02-15T12:11:25;12.90;99.90
8715;DHT22;4394;51.208;8.904;2024-02-15T12:14:31;12.90;99.90
8715;DHT22;4394;51.208;8.904;2024-02-15T12:17:36;12.90;99.90
8715;DHT22;4394;51.208;8.904;2024-02-15T12:20:44;12.90;99.90
8715;DHT22;4394;51.208;8.904;2024-02-15T12:23:32;12.90;99.90
8715;DHT22;4394;51.208;8.904;2024-02-15T12:26:22;12.90;99.90
8715;DHT22;4394;51.208;8.904;2024-02-15T12:29:11;12.90;99.90
8715;DHT22;4394;51.208;8.904;2024-02-15T12:32:04;12.90;99.90
8715;DHT22;4394;51.208;8.904;2024-02-15T12:34:52;13.00;99.90
8715;DHT22;4394;51.208;8.904;2024-02-15T12:37:42;13.00;99.90
8715;DHT22;4394;51.208;8.904;2024-02-15T12:40:31;13.00;99.90
8715;DHT22;4394;51.208;8.904;2024-02-15T12:43:19;13.00;99.90
8715;DHT22;4394;51.208;8.904;2024-02-15T12:46:08;13.00;99.90
8715;DHT22;4394;51.208;8.904;2024-02-15T12:49:12;13.00;99.90
8715;DHT22;4394;51.208;8.904;2024-02-15T12:52:34;13.00;99.90
8715;DHT22;4394;51.208;8.904;2024-02-15T12:55:24;13.10;99.90
8715;DHT22;4394;51.208;8.904;2024-02-15T12:58:13;13.00;99.90
8715;DHT22;4394;51.208;8.904;2024-02-15T13:01:03;13.10;99.90
8715;DHT22;4394;51.208;8.904;2024-02-15T13:03:51;13.10;99.90
8715;DHT22;4394;51.208;8.904;2024-02-15T13:06:39;13.10;99.90
8715;DHT22;4394;51.208;8.904;2024-02-15T13:09:27;13.10;99.90
8715;DHT22;4394;51.208;8.904;2024-02-15T13:12:17;13.10;99.90
8715;DHT22;4394;51.208;8.904;2024-02-15T13:15:06;13.10;99.90
8715;DHT22;4394;51.208;8.904;2024-02-15T13:17:58;13.10;99.90
8715;DHT22;4394;51.208;8.904;2024-02-15T13:20:47;13.20;99.90
8715;DHT22;4394;51.208;8.904;2024-02-15T13:23:39;13.20;99.90
8715;DHT22;4394;51.208;8.904;2024-02-15T13:26:27;13.20;99.90
8715;DHT22;4394;51.208;8.904;2024-02-15T13:29:18;13.20;99.90
8715;DHT22;4394;51.208;8.904;2024-02-15T13:32:08;13.20;99.90
8715;DHT22;4394;51.208;8.904;2024-02-15T13:34:59;13.20;99.90
8715;DHT22;4394;51.208;8.904;2024-02-15T13:37:55;13.30;99.90
8715;DHT22;4394;51.208;8.904;2024-02-15T13:40:45;13.20;99.90
8715;DHT22;4394;51.208;8.904;2024-02-15T13:43:36;13.30;99.90
8715;DHT22;4394;51.208;8.904;2024-02-15T13:46:27;13.30;99.90
8715;DHT22;4394;51.208;8.904;2024-02-15T13:49:15;13.30;99.90
8715;DHT22;4394;51.208;8.904;2024-02-15T13:52:15;13.40;99.90
8715;DHT22;4394;51.208;8.904;2024-02-15T13:55:04;13.40;99.90
8715;DHT22;4394;51.208;8.904;2024-02-15T13:57:52;13.40;99.90
8715;DHT22;4394;51.208;8.904;2024-02-15T14:00:42;13.50;99.90
8715;DHT22;4394;51.208;8.904;2024-02-15T14:03:31;13.50;99.90
8715;DHT22;4394;51.208;8.904;2024-02-15T14:06:20;13.50;99.90
8715;DHT22;4394;51.208;8.904;2024-02-15T14:09:08;13.50;99.90
8715;DHT22;4394;51.208;8.904;2024-02-15T14:11:58;13.50;99.90
8715;DHT22;4394;51.208;8.904;2024-02-15T14:14:48;13.50;99.90
8715;DHT22;4394;51.208;8.904;2024-02-15T14:17:36;13.50;99.90
8715;DHT22;4394;51.208;8.904;2024-02-15T14:20:26;13.50;99.90
8715;DHT22;4394;51.208;8.904;2024-02-15T14:23:15;13.50;99.90
8715;DHT22;4394;51.208;8.904;2024-02-15T14:26:04;13.50;99.90
8715;DHT22;4394;51.208;8.904;2024-02-15T14:28:54;13.40;99.90
8715;DHT22;4394;51.208;8.904;2024-02-15T14:31:42;13.40;99.90
8715;DHT22;4394;51.208;8.904;2024-02-15T14:34:48;13.40;99.90
8715;DHT22;4394;51.208;8.904;2024-02-15T14:37:40;13.40;99.90
8715;DHT22;4394;51.208;8.904;2024-02-15T14:40:28;13.40;99.90
8715;DHT22;4394;51.208;8.904;2024-02-15T14:43:31;13.40;99.90
8715;DHT22;4394;51.208;8.904;2024-02-15T14:46:19;13.40;99.90
8715;DHT22;4394;51.208;8.904;2024-02-15T14:49:08;13.40;99.90
8715;DHT22;4394;51.208;8.904;2024-02-15T14:51:56;13.40;99.90
8715;DHT22;4394;51.208;8.904;2024-02-15T14:54:46;13.40;99.90
8715;DHT22;4394;51.208;8.904;2024-02-15T14:57:34;13.40;99.90
8715;DHT22;4394;51.208;8.904;2024-02-15T15:00:24;13.40;99.90
8715;DHT22;4394;51.208;8.904;2024-02-15T15:03:13;13.40;99.90
8715;DHT22;4394;51.208;8.904;2024-02-15T15:06:02;13.40;99.90
8715;DHT22;4394;51.208;8.904;2024-02-15T15:09:08;13.30;99.90
8715;DHT22;4394;51.208;8.904;2024-02-15T15:12:16;13.30;99.90
8715;DHT22;4394;51.208;8.904;2024-02-15T15:15:21;13.30;99.90
8715;DHT22;4394;51.208;8.904;2024-02-15T15:18:10;13.30;99.90
8715;DHT22;4394;51.208;8.904;2024-02-15T15:20:59;13.30;99.90
8715;DHT22;4394;51.208;8.904;2024-02-15T15:23:47;13.30;99.90
8715;DHT22;4394;51.208;8.904;2024-02-15T15:26:35;13.30;99.90
8715;DHT22;4394;51.208;8.904;2024-02-15T15:29:25;13.30;99.90
8715;DHT22;4394;51.208;8.904;2024-02-15T15:32:13;13.30;99.90
8715;DHT22;4394;51.208;8.904;2024-02-15T15:35:01;13.20;99.90
8715;DHT22;4394;51.208;8.904;2024-02-15T15:37:50;13.20;99.90
8715;DHT22;4394;51.208;8.904;2024-02-15T15:40:38;13.20;99.90
8715;DHT22;4394;51.208;8.904;2024-02-15T15:43:26;13.20;99.90
8715;DHT22;4394;51.208;8.904;2024-02-15T15:46:17;13.20;99.90
8715;DHT22;4394;51.208;8.904;2024-02-15T15:49:05;13.20;99.90
8715;DHT22;4394;51.208;8.904;2024-02-15T15:51:53;13.20;99.90
8715;DHT22;4394;51.208;8.904;2024-02-15T15:54:41;13.20;99.90
8715;DHT22;4394;51.208;8.904;2024-02-15T15:57:29;13.10;99.90
8715;DHT22;4394;51.208;8.904;2024-02-15T16:00:18;13.10;99.90
8715;DHT22;4394;51.208;8.904;2024-02-15T16:03:08;13.10;99.90
8715;DHT22;4394;51.208;8.904;2024-02-15T16:05:56;13.10;99.90
8715;DHT22;4394;51.208;8.904;2024-02-15T16:08:44;13.10;99.90
8715;DHT22;4394;51.208;8.904;2024-02-15T16:11:33;13.00;99.90
8715;DHT22;4394;51.208;8.904;2024-02-15T16:14:21;13.00;99.90
8715;DHT22;4394;51.208;8.904;2024-02-15T16:17:10;13.10;99.90
8715;DHT22;4394;51.208;8.904;2024-02-15T16:20:01;13.10;99.90
8715;DHT22;4394;51.208;8.904;2024-02-15T16:22:52;13.00;99.90
8715;DHT22;4394;51.208;8.904;2024-02-15T16:25:40;13.00;99.90
8715;DHT22;4394;51.208;8.904;2024-02-15T16:28:28;13.00;99.90
8715;DHT22;4394;51.208;8.904;2024-02-15T16:31:16;13.00;99.90
8715;DHT22;4394;51.208;8.904;2024-02-15T16:34:04;12.90;99.90
8715;DHT22;4394;51.208;8.904;2024-02-15T16:36:55;12.90;99.90
8715;DHT22;4394;51.208;8.904;2024-02-15T16:39:43;13.00;99.90
8715;DHT22;4394;51.208;8.904;2024-02-15T16:42:31;12.90;99.90
8715;DHT22;4394;51.208;8.904;2024-02-15T16:45:20;12.90;99.90
8715;DHT22;4394;51.208;8.904;2024-02-15T16:48:08;12.90;99.90
8715;DHT22;4394;51.208;8.904;2024-02-15T16:50:58;12.80;99.90
8715;DHT22;4394;51.208;8.904;2024-02-15T16:53:51;12.80;99.90
8715;DHT22;4394;51.208;8.904;2024-02-15T16:56:39;12.80;99.90
8715;DHT22;4394;51.208;8.904;2024-02-15T16:59:29;12.80;99.90
8715;DHT22;4394;51.208;8.904;2024-02-15T17:02:19;12.80;99.90
8715;DHT22;4394;51.208;8.904;2024-02-15T17:05:07;12.80;99.90
8715;DHT22;4394;51.208;8.904;2024-02-15T17:07:55;12.80;99.90
8715;DHT22;4394;51.208;8.904;2024-02-15T17:10:45;12.70;99.90
8715;DHT22;4394;51.208;8.904;2024-02-15T17:13:33;12.80;99.90
8715;DHT22;4394;51.208;8.904;2024-02-15T17:16:23;12.70;99.90
8715;DHT22;4394;51.208;8.904;2024-02-15T17:19:11;12.70;99.90
8715;DHT22;4394;51.208;8.904;2024-02-15T17:21:59;12.70;99.90
8715;DHT22;4394;51.208;8.904;2024-02-15T17:24:48;12.60;99.90
8715;DHT22;4394;51.208;8.904;2024-02-15T17:27:38;12.70;99.90
8715;DHT22;4394;51.208;8.904;2024-02-15T17:30:28;12.70;99.90
8715;DHT22;4394;51.208;8.904;2024-02-15T17:33:16;12.70;99.90
8715;DHT22;4394;51.208;8.904;2024-02-15T17:36:05;12.60;99.90
8715;DHT22;4394;51.208;8.904;2024-02-15T17:38:53;12.60;99.90
8715;DHT22;4394;51.208;8.904;2024-02-15T17:41:42;12.60;99.90
8715;DHT22;4394;51.208;8.904;2024-02-15T17:44:31;12.60;99.90
8715;DHT22;4394;51.208;8.904;2024-02-15T17:47:20;12.60;99.90
8715;DHT22;4394;51.208;8.904;2024-02-15T17:50:08;12.60;99.90
8715;DHT22;4394;51.208;8.904;2024-02-15T17:53:01;12.60;99.90
8715;DHT22;4394;51.208;8.904;2024-02-15T17:55:50;12.60;99.90
8715;DHT22;4394;51.208;8.904;2024-02-15T17:58:38;12.50;99.90
8715;DHT22;4394;51.208;8.904;2024-02-15T18:01:28;12.60;99.90
8715;DHT22;4394;51.208;8.904;2024-02-15T18:04:17;12.60;99.90
8715;DHT22;4394;51.208;8.904;2024-02-15T18:07:06;12.50;99.90
8715;DHT22;4394;51.208;8.904;2024-02-15T18:09:54;12.50;99.90
8715;DHT22;4394;51.208;8.904;2024-02-15T18:12:46;12.50;99.90
8715;DHT22;4394;51.208;8.904;2024-02-15T18:15:34;12.50;99.90
8715;DHT22;4394;51.208;8.904;2024-02-15T18:18:27;12.50;99.90
8715;DHT22;4394;51.208;8.904;2024-02-15T18:21:16;12.50;99.90
8715;DHT22;4394;51.208;8.904;2024-02-15T18:24:05;12.50;99.90
8715;DHT22;4394;51.208;8.904;2024-02-15T18:26:53;12.50;99.90
8715;DHT22;4394;51.208;8.904;2024-02-15T18:29:43;12.50;99.90
8715;DHT22;4394;51.208;8.904;2024-02-15T18:32:31;12.50;99.90